Time;durP1;ratioP1;P1;durP2;ratioP2;P2;SDS_P1;SDS_P2;PMS_P1;PMS_P2;Temp;Humidity;BMP_temperature;BMP_pressure;BME280_temperature;BME280_humidity;BME280_pressure;Samples;Min_cycle;Max_cycle;Signal;HPM_P1;HPM_P2
2021/04/09 00:00:07;;;;;;;4.67;2.50;;;25.60;99.90;;;;;;5053268;28;20616;-69
2021/04/09 00:02:34;;;;;;;3.60;2.20;;;25.80;99.90;;;;;;5048003;28;20184;-70
2021/04/09 00:05:05;;;;;;;4.07;2.43;;;26.00;99.90;;;;;;5043895;28;20198;-70
2021/04/09 00:07:33;;;;;;;3.63;2.30;;;26.30;99.90;;;;;;5049133;28;20548;-71
2021/04/09 00:10:00;;;;;;;5.97;2.00;;;26.40;99.20;;;;;;5046897;28;20210;-70
2021/04/09 00:12:27;;;;;;;4.83;2.13;;;26.50;98.60;;;;;;5040513;28;20223;-70
2021/04/09 00:14:55;;;;;;;4.47;2.43;;;26.70;98.10;;;;;;5043564;28;20187;-69
2021/04/09 00:17:22;;;;;;;3.70;2.53;;;26.80;98.20;;;;;;5044600;28;20247;-70
2021/04/09 00:19:49;;;;;;;4.07;2.10;;;26.60;97.60;;;;;;5047665;28;20202;-69
2021/04/09 00:22:17;;;;;;;3.83;2.33;;;26.30;97.90;;;;;;5048591;28;20541;-69
2021/04/09 00:24:44;;;;;;;5.40;2.40;;;26.10;97.80;;;;;;5050178;28;20187;-70
2021/04/09 00:27:11;;;;;;;3.83;2.10;;;26.00;98.00;;;;;;5050894;28;20171;-69
2021/04/09 00:29:38;;;;;;;3.87;2.40;;;25.90;98.60;;;;;;5040568;28;20227;-70
2021/04/09 00:32:06;;;;;;;6.53;2.03;;;25.80;98.50;;;;;;5052232;28;20639;-70
2021/04/09 00:34:33;;;;;;;13.80;2.87;;;25.70;98.60;;;;;;5051104;28;20172;-70
2021/04/09 00:37:01;;;;;;;5.57;2.40;;;25.70;98.70;;;;;;5047605;28;20188;-70
2021/04/09 00:39:28;;;;;;;4.60;2.33;;;25.70;99.30;;;;;;5040687;28;20189;-70
2021/04/09 00:41:55;;;;;;;4.93;2.47;;;25.70;98.80;;;;;;5044371;28;20569;-71
2021/04/09 00:44:23;;;;;;;5.57;2.40;;;25.70;98.90;;;;;;5046482;28;20638;-71
2021/04/09 00:46:50;;;;;;;8.27;2.40;;;25.80;98.90;;;;;;5051897;28;20330;-71
2021/04/09 00:49:17;;;;;;;6.77;2.40;;;25.90;98.70;;;;;;5052266;28;20187;-69
2021/04/09 00:51:45;;;;;;;12.40;2.93;;;25.90;98.70;;;;;;5046509;28;20204;-71
2021/04/09 00:54:13;;;;;;;6.03;3.10;;;26.20;97.70;;;;;;5048193;28;20184;-70
2021/04/09 00:56:40;;;;;;;4.73;2.40;;;26.50;97.60;;;;;;5052565;28;20679;-70
2021/04/09 00:59:08;;;;;;;5.37;2.43;;;26.70;95.90;;;;;;5045618;28;20179;-71
2021/04/09 01:01:35;;;;;;;3.50;2.40;;;26.70;95.70;;;;;;5041815;28;20184;-71
2021/04/09 01:04:03;;;;;;;6.30;2.87;;;26.60;95.60;;;;;;5051685;28;20187;-70
2021/04/09 01:06:30;;;;;;;4.20;2.50;;;26.60;95.60;;;;;;5048901;28;20184;-72
2021/04/09 01:08:57;;;;;;;3.07;2.27;;;26.60;94.80;;;;;;5047711;28;20183;-71
2021/04/09 01:11:25;;;;;;;4.93;2.50;;;26.50;95.20;;;;;;5051589;28;20211;-71
2021/04/09 01:13:52;;;;;;;5.33;1.90;;;26.60;95.30;;;;;;5049815;28;20176;-71
2021/04/09 01:16:52;;;;;;;4.73;2.30;;;26.40;95.30;;;;;;5046017;28;20635;-71
2021/04/09 01:19:32;;;;;;;3.30;2.40;;;26.40;95.70;;;;;;5043613;28;20194;-71
2021/04/09 01:22:05;;;;;;;3.07;2.33;;;26.40;95.30;;;;;;5041488;28;20262;-71
2021/04/09 01:25:26;;;;;;;5.53;2.30;;;26.30;95.70;;;;;;5049753;28;20207;-71
2021/04/09 01:28:25;;;;;;;5.53;2.50;;;26.30;95.30;;;;;;4970864;28;20666;-71
2021/04/09 01:31:14;;;;;;;4.47;1.90;;;26.30;95.50;;;;;;5047079;28;20538;-71
2021/04/09 01:33:46;;;;;;;6.43;2.40;;;26.20;95.30;;;;;;5050137;28;20198;-71
2021/04/09 01:36:21;;;;;;;2.57;2.00;;;26.20;95.40;;;;;;5039676;28;20627;-69
2021/04/09 01:39:01;;;;;;;5.57;2.50;;;26.20;96.20;;;;;;5047571;28;20524;-69
2021/04/09 01:41:30;;;;;;;3.47;2.13;;;26.10;96.40;;;;;;5036302;28;20184;-70
2021/04/09 01:44:02;;;;;;;8.73;2.67;;;25.90;96.00;;;;;;5046789;28;20225;-71
2021/04/09 01:46:33;;;;;;;5.10;2.20;;;25.80;96.20;;;;;;5055227;28;20239;-70
2021/04/09 01:49:00;;;;;;;3.67;2.37;;;25.70;96.90;;;;;;5055064;28;20262;-71
2021/04/09 01:51:28;;;;;;;8.57;2.57;;;25.50;96.60;;;;;;5037593;28;20273;-70
2021/04/09 01:53:56;;;;;;;4.27;2.30;;;25.50;97.10;;;;;;5054883;28;20202;-68
2021/04/09 01:56:26;;;;;;;4.13;2.43;;;25.40;96.80;;;;;;5036959;28;20181;-71
2021/04/09 01:58:55;;;;;;;3.77;2.07;;;25.40;96.50;;;;;;5046123;28;20223;-70
2021/04/09 02:01:22;;;;;;;3.50;2.20;;;25.40;96.80;;;;;;5043383;28;20207;-70
2021/04/09 02:03:53;;;;;;;6.00;2.43;;;25.40;96.90;;;;;;5046807;28;20249;-71
2021/04/09 02:06:21;;;;;;;5.57;2.30;;;25.40;96.40;;;;;;5037991;28;20177;-69
2021/04/09 02:08:50;;;;;;;5.23;2.33;;;25.50;96.60;;;;;;5035179;28;20589;-70
2021/04/09 02:11:18;;;;;;;5.27;2.13;;;25.50;96.90;;;;;;5053679;28;20707;-70
2021/04/09 02:13:47;;;;;;;4.17;2.63;;;25.50;97.10;;;;;;5050697;28;20538;-70
2021/04/09 02:16:14;;;;;;;7.00;2.10;;;25.60;97.30;;;;;;5040989;28;20187;-69
2021/04/09 02:18:43;;;;;;;5.80;2.40;;;25.60;97.20;;;;;;5042229;28;20183;-68
2021/04/09 02:21:11;;;;;;;6.03;2.67;;;25.60;97.90;;;;;;5035591;28;20476;-69
2021/04/09 02:23:38;;;;;;;4.50;2.30;;;25.40;98.40;;;;;;5051339;28;20190;-70
2021/04/09 02:26:05;;;;;;;4.90;2.30;;;25.30;99.00;;;;;;5050241;28;20233;-69
2021/04/09 02:28:33;;;;;;;3.97;2.27;;;25.10;99.80;;;;;;5054024;28;20204;-69
2021/04/09 02:31:05;;;;;;;6.73;2.77;;;25.00;99.40;;;;;;5053359;28;20207;-69
2021/04/09 02:33:34;;;;;;;3.63;2.20;;;24.90;99.90;;;;;;5040578;28;20323;-70
2021/04/09 02:36:23;;;;;;;3.63;2.17;;;24.90;99.90;;;;;;5054995;28;20172;-70
2021/04/09 02:39:05;;;;;;;7.30;2.63;;;24.90;99.50;;;;;;5051362;28;20263;-70
2021/04/09 02:41:37;;;;;;;6.17;2.10;;;25.00;99.30;;;;;;5034406;28;20175;-69
2021/04/09 02:44:05;;;;;;;6.47;2.83;;;25.10;99.60;;;;;;5051548;28;20296;-69
2021/04/09 02:46:49;;;;;;;7.90;2.43;;;25.30;99.00;;;;;;5043591;28;20728;-69
2021/04/09 02:49:29;;;;;;;4.90;2.60;;;25.50;99.10;;;;;;5054013;28;20202;-69
2021/04/09 02:51:58;;;;;;;5.47;2.10;;;25.80;98.10;;;;;;5054429;28;20704;-70
2021/04/09 02:54:29;;;;;;;4.40;2.50;;;25.90;97.80;;;;;;5054100;28;20187;-70
2021/04/09 02:56:58;;;;;;;4.83;1.97;;;25.90;97.00;;;;;;5054521;28;20164;-69
2021/04/09 02:59:28;;;;;;;9.13;2.70;;;25.80;97.20;;;;;;5052738;28;20183;-69
2021/04/09 03:01:56;;;;;;;10.80;2.13;;;25.80;97.40;;;;;;5041734;28;20672;-69
2021/04/09 03:04:23;;;;;;;8.50;2.33;;;25.70;97.50;;;;;;5052311;28;20258;-70
2021/04/09 03:06:51;;;;;;;4.37;2.40;;;25.70;96.80;;;;;;5054053;28;20639;-70
2021/04/09 03:09:19;;;;;;;5.30;2.30;;;25.60;97.40;;;;;;5052198;28;20266;-70
2021/04/09 03:11:46;;;;;;;3.77;2.17;;;25.60;97.70;;;;;;5052973;28;20662;-69
2021/04/09 03:14:14;;;;;;;6.60;2.70;;;25.60;97.40;;;;;;5054226;28;20180;-70
2021/04/09 03:16:53;;;;;;;6.43;2.40;;;25.60;97.60;;;;;;5052602;28;20191;-69
2021/04/09 03:19:20;;;;;;;6.67;2.50;;;25.70;97.30;;;;;;5043380;28;20184;-69
2021/04/09 03:21:47;;;;;;;6.97;2.70;;;26.00;97.40;;;;;;5052820;28;20195;-69
2021/04/09 03:24:15;;;;;;;7.30;2.67;;;26.20;96.10;;;;;;5053126;28;20186;-69
2021/04/09 03:26:42;;;;;;;10.47;2.53;;;26.30;95.60;;;;;;5054127;28;20192;-69
2021/04/09 03:29:10;;;;;;;8.27;2.10;;;26.40;95.90;;;;;;5033089;28;20230;-69
2021/04/09 03:31:37;;;;;;;4.10;2.37;;;26.50;96.10;;;;;;5052461;28;20596;-70
2021/04/09 03:34:04;;;;;;;7.77;2.50;;;26.60;95.30;;;;;;5052134;28;20199;-69
2021/04/09 03:36:32;;;;;;;8.30;2.30;;;27.20;95.40;;;;;;5052347;28;20191;-69
2021/04/09 03:38:59;;;;;;;7.20;2.27;;;27.80;94.30;;;;;;5053474;28;20168;-70
2021/04/09 03:41:26;;;;;;;3.87;2.30;;;28.30;93.20;;;;;;5053563;28;20187;-69
2021/04/09 03:43:54;;;;;;;5.10;2.03;;;28.50;91.80;;;;;;5047356;28;20190;-69
2021/04/09 03:46:21;;;;;;;5.87;1.90;;;29.00;91.10;;;;;;5042768;28;20263;-69
2021/04/09 03:48:48;;;;;;;4.47;2.13;;;29.20;90.30;;;;;;5053338;28;20176;-69
2021/04/09 03:51:16;;;;;;;7.22;2.70;;;29.60;90.00;;;;;;5052486;28;20689;-68
2021/04/09 03:53:43;;;;;;;5.27;2.07;;;29.90;88.70;;;;;;5053473;28;20176;-70
2021/04/09 03:56:10;;;;;;;7.37;2.40;;;30.10;86.90;;;;;;5053423;28;20191;-71
2021/04/09 03:58:38;;;;;;;7.75;2.50;;;29.90;86.80;;;;;;5035564;28;20266;-71
2021/04/09 04:01:05;;;;;;;7.32;2.60;;;30.00;86.40;;;;;;5053180;28;20172;-71
2021/04/09 04:03:32;;;;;;;4.55;2.38;;;30.50;84.60;;;;;;5049416;28;20187;-70
2021/04/09 04:06:00;;;;;;;5.85;2.03;;;30.30;82.90;;;;;;5052988;28;20274;-70
2021/04/09 04:08:27;;;;;;;2.70;1.52;;;30.40;81.00;;;;;;5052958;28;20262;-71
2021/04/09 04:10:54;;;;;;;3.03;1.60;;;30.60;80.20;;;;;;5052916;28;20172;-70
2021/04/09 04:13:22;;;;;;;3.75;1.80;;;30.90;80.40;;;;;;5052667;28;20572;-70
2021/04/09 04:15:50;;;;;;;4.07;1.88;;;31.30;78.90;;;;;;5053063;28;20176;-71
2021/04/09 04:18:17;;;;;;;2.85;1.67;;;31.80;77.00;;;;;;5034331;28;20514;-70
2021/04/09 04:20:45;;;;;;;2.08;1.33;;;31.70;75.50;;;;;;5052507;28;20692;-69
2021/04/09 04:23:12;;;;;;;5.63;1.60;;;31.70;75.00;;;;;;5047666;28;20226;-70
2021/04/09 04:25:39;;;;;;;2.83;1.77;;;31.60;74.50;;;;;;5043123;28;20203;-70
2021/04/09 04:28:07;;;;;;;3.95;2.13;;;31.50;74.50;;;;;;5052729;28;20645;-71
2021/04/09 04:30:34;;;;;;;7.07;2.30;;;31.80;74.10;;;;;;5051515;28;20172;-70
2021/04/09 04:33:02;;;;;;;4.93;1.92;;;32.10;72.40;;;;;;5051841;28;20257;-68
2021/04/09 04:35:29;;;;;;;8.60;2.20;;;32.10;72.90;;;;;;5045790;28;20172;-69
2021/04/09 04:37:59;;;;;;;6.72;2.30;;;31.90;72.90;;;;;;5050844;28;20187;-70
2021/04/09 04:40:27;;;;;;;6.53;1.80;;;32.20;72.10;;;;;;5052652;28;20579;-70
2021/04/09 04:42:54;;;;;;;4.30;1.98;;;32.40;71.40;;;;;;5044323;28;20593;-70
2021/04/09 04:45:22;;;;;;;4.65;1.95;;;32.60;71.20;;;;;;5041675;28;20532;-68
2021/04/09 04:47:49;;;;;;;3.65;1.60;;;33.00;71.00;;;;;;5043293;28;20203;-69
2021/04/09 04:50:16;;;;;;;8.60;2.15;;;33.20;70.40;;;;;;5042092;28;20258;-68
2021/04/09 04:52:44;;;;;;;4.43;2.08;;;33.60;68.10;;;;;;5052179;28;20246;-68
2021/04/09 04:55:12;;;;;;;5.28;2.17;;;33.80;68.10;;;;;;5051118;28;20660;-68
2021/04/09 04:57:39;;;;;;;4.47;1.80;;;33.20;69.10;;;;;;5045562;28;20570;-69
2021/04/09 05:00:07;;;;;;;7.10;2.25;;;32.50;69.90;;;;;;5052438;28;20512;-69
2021/04/09 05:02:35;;;;;;;4.18;2.20;;;32.90;69.60;;;;;;5046495;28;20211;-68
2021/04/09 05:05:04;;;;;;;6.03;2.50;;;33.20;69.20;;;;;;5041770;28;20176;-68
2021/04/09 05:07:32;;;;;;;3.60;2.13;;;33.90;67.50;;;;;;5047725;28;20189;-68
2021/04/09 05:09:59;;;;;;;2.90;1.95;;;34.20;66.30;;;;;;5042344;28;20179;-69
2021/04/09 05:12:27;;;;;;;6.85;3.40;;;34.10;65.90;;;;;;5051882;28;20261;-68
2021/04/09 05:14:55;;;;;;;4.63;2.35;;;34.30;65.60;;;;;;5052582;28;20180;-67
2021/04/09 05:17:22;;;;;;;5.85;2.53;;;34.60;64.40;;;;;;5049380;28;20234;-69
2021/04/09 05:19:50;;;;;;;3.88;2.22;;;34.30;65.20;;;;;;5052178;28;20642;-69
2021/04/09 05:22:17;;;;;;;3.90;1.90;;;33.80;65.50;;;;;;5051439;28;20183;-69
2021/04/09 05:24:47;;;;;;;5.45;2.15;;;33.50;65.90;;;;;;5051296;28;20187;-68
2021/04/09 05:27:15;;;;;;;2.65;2.03;;;33.40;66.30;;;;;;5050529;28;20218;-69
2021/04/09 05:29:43;;;;;;;2.67;2.00;;;33.10;65.00;;;;;;5050259;28;20183;-69
2021/04/09 05:32:12;;;;;;;4.90;1.60;;;32.90;66.80;;;;;;5051694;28;20310;-68
2021/04/09 05:34:40;;;;;;;4.10;1.85;;;32.70;66.30;;;;;;5051282;28;20266;-69
2021/04/09 05:37:08;;;;;;;3.50;2.90;;;32.80;66.30;;;;;;5048602;28;20172;-69
2021/04/09 05:39:39;;;;;;;3.00;2.10;;;33.00;66.60;;;;;;5051349;28;20180;-67
2021/04/09 05:42:07;;;;;;;4.90;1.73;;;33.10;66.70;;;;;;5051075;28;20180;-69
2021/04/09 05:44:36;;;;;;;3.30;2.10;;;33.70;66.10;;;;;;5038241;28;20180;-69
2021/04/09 05:47:10;;;;;;;4.28;1.88;;;33.00;65.60;;;;;;5051499;28;20228;-69
2021/04/09 05:49:38;;;;;;;4.22;1.50;;;32.90;66.30;;;;;;5051849;28;20167;-69
2021/04/09 05:52:07;;;;;;;3.40;2.00;;;33.20;66.00;;;;;;5051585;28;20588;-69
2021/04/09 05:54:40;;;;;;;2.85;2.08;;;33.20;66.30;;;;;;5051315;28;20210;-69
2021/04/09 05:57:07;;;;;;;3.70;1.95;;;33.50;65.40;;;;;;5050263;28;20585;-69
2021/04/09 05:59:35;;;;;;;5.45;2.17;;;33.50;65.90;;;;;;5051802;28;20180;-69
2021/04/09 06:02:02;;;;;;;7.43;1.95;;;33.10;65.90;;;;;;5052772;28;20241;-69
2021/04/09 06:04:29;;;;;;;2.38;1.70;;;32.90;67.10;;;;;;5053343;28;20183;-69
2021/04/09 06:06:57;;;;;;;3.22;2.15;;;32.70;64.80;;;;;;5040355;28;20172;-69
2021/04/09 06:09:24;;;;;;;3.63;1.90;;;33.10;65.00;;;;;;5055431;28;20176;-69
2021/04/09 06:11:51;;;;;;;6.40;1.77;;;32.90;64.20;;;;;;5055300;28;20670;-68
2021/04/09 06:14:20;;;;;;;3.65;1.98;;;32.80;65.10;;;;;;5055069;28;20183;-68
2021/04/09 06:16:47;;;;;;;3.50;1.90;;;33.00;65.50;;;;;;5054242;28;20638;-67
2021/04/09 06:19:15;;;;;;;4.30;1.88;;;32.90;65.40;;;;;;5054253;28;20687;-71
2021/04/09 06:21:42;;;;;;;2.40;1.70;;;33.00;65.40;;;;;;5053351;28;20668;-69
2021/04/09 06:24:10;;;;;;;2.47;1.70;;;33.00;64.90;;;;;;5053350;28;20199;-69
2021/04/09 06:26:38;;;;;;;3.63;1.77;;;33.10;65.40;;;;;;5043886;28;20176;-68
2021/04/09 06:29:05;;;;;;;2.22;1.73;;;33.10;65.40;;;;;;5043799;28;20532;-68
2021/04/09 06:31:32;;;;;;;2.95;1.40;;;33.00;64.90;;;;;;5051599;28;20270;-68
2021/04/09 06:34:00;;;;;;;2.15;1.50;;;32.80;64.70;;;;;;5052859;28;20180;-69
2021/04/09 06:36:27;;;;;;;4.18;1.70;;;32.60;65.20;;;;;;5052757;28;20278;-68
2021/04/09 06:38:55;;;;;;;4.88;1.85;;;32.40;65.70;;;;;;5054864;28;20168;-69
2021/04/09 06:41:22;;;;;;;2.67;1.90;;;32.40;65.40;;;;;;5055022;28;20274;-68
2021/04/09 06:43:50;;;;;;;2.88;1.60;;;32.50;64.90;;;;;;5053806;28;20199;-69
2021/04/09 06:46:17;;;;;;;3.33;1.77;;;32.40;65.80;;;;;;5047500;28;20247;-68
2021/04/09 06:48:45;;;;;;;5.57;1.88;;;32.40;65.50;;;;;;5054553;28;20271;-68
2021/04/09 06:51:13;;;;;;;6.68;1.60;;;32.10;65.90;;;;;;5054538;28;20203;-69
2021/04/09 06:53:47;;;;;;;2.70;1.90;;;31.60;67.10;;;;;;5054304;28;20187;-69
2021/04/09 06:56:19;;;;;;;3.60;1.88;;;31.00;69.60;;;;;;5053985;28;20167;-70
2021/04/09 06:58:49;;;;;;;6.68;1.95;;;30.40;70.00;;;;;;5054475;28;20638;-70
2021/04/09 07:01:18;;;;;;;5.05;2.22;;;30.00;71.60;;;;;;5049335;28;20187;-69
2021/04/09 07:03:45;;;;;;;6.72;2.03;;;29.60;72.90;;;;;;5054501;28;20270;-69
2021/04/09 07:06:13;;;;;;;3.05;2.20;;;29.30;73.60;;;;;;5053537;28;20176;-70
2021/04/09 07:08:42;;;;;;;3.77;2.00;;;29.10;74.20;;;;;;5046683;28;20191;-71
2021/04/09 07:11:10;;;;;;;3.83;2.10;;;28.90;75.40;;;;;;5050193;28;20226;-70
2021/04/09 07:13:54;;;;;;;9.33;2.20;;;28.60;76.70;;;;;;5025844;28;20181;-70
2021/04/09 07:16:21;;;;;;;4.73;2.50;;;28.40;77.60;;;;;;5034273;28;20528;-69
2021/04/09 07:18:57;;;;;;;3.87;2.13;;;28.20;79.00;;;;;;5049001;28;20184;-69
2021/04/09 07:21:30;;;;;;;3.77;1.73;;;27.90;80.00;;;;;;5048384;28;20245;-69
2021/04/09 07:24:18;;;;;;;8.00;2.10;;;27.80;80.20;;;;;;5052610;28;20194;-70
2021/04/09 07:26:53;;;;;;;8.93;2.53;;;27.60;80.60;;;;;;5048906;28;20180;-70
2021/04/09 07:29:34;;;;;;;4.77;2.30;;;27.50;80.80;;;;;;5051527;28;20312;-69
2021/04/09 07:32:07;;;;;;;5.70;2.80;;;27.40;80.90;;;;;;5053398;28;20207;-70
2021/04/09 07:34:51;;;;;;;14.33;3.90;;;27.30;81.20;;;;;;5050438;28;20179;-71
2021/04/09 07:37:18;;;;;;;18.73;4.70;;;26.70;90.10;;;;;;5052895;28;20192;-69
2021/04/09 07:39:46;;;;;;;21.20;6.30;;;26.10;94.80;;;;;;5033133;28;20180;-71
2021/04/09 07:42:14;;;;;;;29.33;7.27;;;25.40;99.90;;;;;;5038916;28;20265;-72
2021/04/09 07:44:43;;;;;;;28.60;6.93;;;24.90;99.90;;;;;;5046364;28;20216;-70
2021/04/09 07:47:12;;;;;;;31.77;7.30;;;24.50;99.90;;;;;;5047823;28;20243;-72
2021/04/09 07:49:40;;;;;;;28.77;7.90;;;24.30;99.90;;;;;;5035618;28;20219;-68
2021/04/09 07:52:15;;;;;;;29.23;6.87;;;24.10;99.90;;;;;;5052646;28;20350;-70
2021/04/09 07:54:43;;;;;;;30.27;6.40;;;23.80;99.90;;;;;;5052993;28;20637;-70
2021/04/09 07:57:31;;;;;;;33.53;5.87;;;23.70;99.90;;;;;;5053183;28;20191;-69
2021/04/09 07:59:58;;;;;;;34.97;6.93;;;23.50;99.90;;;;;;5038040;28;20582;-69
2021/04/09 08:02:40;;;;;;;38.07;7.70;;;23.30;99.90;;;;;;5040799;28;20279;-71
2021/04/09 08:05:09;;;;;;;32.67;5.57;;;23.20;99.90;;;;;;5051915;28;20545;-70
2021/04/09 08:07:37;;;;;;;35.73;7.27;;;23.10;99.90;;;;;;5052545;28;20246;-70
2021/04/09 08:10:05;;;;;;;35.33;7.13;;;23.00;99.90;;;;;;5052534;28;20203;-69
2021/04/09 08:12:36;;;;;;;27.20;6.67;;;23.00;99.90;;;;;;5039657;28;20326;-69
2021/04/09 08:15:16;;;;;;;32.47;6.20;;;23.00;99.90;;;;;;5053311;28;20187;-70
2021/04/09 08:17:55;;;;;;;36.80;6.77;;;22.90;99.90;;;;;;5052178;28;20186;-71
2021/04/09 08:20:23;;;;;;;33.63;6.23;;;22.90;99.90;;;;;;5048924;28;20184;-70
2021/04/09 08:22:51;;;;;;;33.60;7.23;;;22.80;99.90;;;;;;5064597;28;20179;-70
2021/04/09 08:25:19;;;;;;;27.00;6.27;;;22.70;99.90;;;;;;5049802;28;20318;-71
2021/04/09 08:27:46;;;;;;;29.23;5.77;;;22.60;99.90;;;;;;5052953;28;20192;-69
2021/04/09 08:30:14;;;;;;;28.13;6.90;;;22.60;99.90;;;;;;5051187;28;20191;-71
2021/04/09 08:32:42;;;;;;;28.47;6.33;;;22.50;99.90;;;;;;5045183;28;20943;-70
2021/04/09 08:35:10;;;;;;;35.60;7.20;;;22.40;99.90;;;;;;5048811;28;20275;-69
2021/04/09 08:37:38;;;;;;;25.13;5.80;;;22.40;99.90;;;;;;5052336;28;20194;-69
2021/04/09 08:40:06;;;;;;;32.37;6.30;;;22.40;99.90;;;;;;5052253;28;20180;-69
2021/04/09 08:42:34;;;;;;;35.33;7.07;;;22.30;99.90;;;;;;5047771;28;20538;-70
2021/04/09 08:45:04;;;;;;;28.60;6.13;;;22.30;99.90;;;;;;5049949;28;20184;-69
2021/04/09 08:47:32;;;;;;;26.77;6.00;;;22.30;99.90;;;;;;5051753;28;20226;-71
2021/04/09 08:50:00;;;;;;;27.10;5.40;;;22.20;99.90;;;;;;5052309;28;20179;-70
2021/04/09 08:52:29;;;;;;;32.47;6.57;;;22.20;99.90;;;;;;5039633;28;20274;-72
2021/04/09 08:54:57;;;;;;;31.57;6.00;;;22.20;99.90;;;;;;5039764;28;20610;-70
2021/04/09 08:57:38;;;;;;;22.90;5.83;;;22.20;99.90;;;;;;5043833;28;20199;-70
2021/04/09 09:00:10;;;;;;;32.37;6.80;;;22.20;99.90;;;;;;5047602;28;20202;-71
2021/04/09 09:02:44;;;;;;;30.90;7.60;;;22.10;99.90;;;;;;5040480;28;20600;-71
2021/04/09 09:05:23;;;;;;;31.43;5.73;;;22.10;99.90;;;;;;5048034;28;20193;-70
2021/04/09 09:07:53;;;;;;;25.93;5.07;;;22.10;99.90;;;;;;5050445;28;20207;-71
2021/04/09 09:10:24;;;;;;;38.40;6.43;;;22.10;99.90;;;;;;5051716;28;20274;-71
2021/04/09 09:13:12;;;;;;;30.13;6.77;;;22.00;99.90;;;;;;5052257;28;20349;-70
2021/04/09 09:15:52;;;;;;;25.67;4.87;;;22.00;99.90;;;;;;5048751;28;20184;-72
2021/04/09 09:18:25;;;;;;;25.40;6.03;;;22.00;99.90;;;;;;5038314;28;20175;-70
2021/04/09 09:21:09;;;;;;;31.90;5.70;;;22.00;99.90;;;;;;5052245;28;20266;-72
2021/04/09 09:23:57;;;;;;;25.47;5.27;;;22.00;99.90;;;;;;5040389;28;20645;-69
2021/04/09 09:26:44;;;;;;;29.33;6.50;;;21.90;99.90;;;;;;5050444;28;20175;-70
2021/04/09 09:29:22;;;;;;;27.17;5.80;;;21.90;99.90;;;;;;5034382;28;20175;-70
2021/04/09 09:32:07;;;;;;;28.20;5.93;;;21.90;99.90;;;;;;5048069;28;20571;-70
2021/04/09 09:34:45;;;;;;;32.47;6.77;;;21.80;99.90;;;;;;5049717;28;20175;-70
2021/04/09 09:37:34;;;;;;;29.53;5.83;;;21.80;99.90;;;;;;5048149;28;20268;-71
2021/04/09 09:40:06;;;;;;;32.97;7.67;;;21.80;99.90;;;;;;5053983;28;20233;-70
2021/04/09 09:42:33;;;;;;;31.87;6.17;;;21.80;99.90;;;;;;5052918;28;20176;-70
2021/04/09 09:45:04;;;;;;;25.20;5.47;;;21.70;99.90;;;;;;5056101;28;20183;-70
2021/04/09 09:47:34;;;;;;;28.23;5.17;;;21.70;99.90;;;;;;5048118;28;20303;-70
2021/04/09 09:50:04;;;;;;;35.30;6.20;;;21.70;99.90;;;;;;5053556;28;20219;-71
2021/04/09 09:52:43;;;;;;;27.87;6.10;;;21.70;99.90;;;;;;5050152;28;20226;-70
2021/04/09 09:55:19;;;;;;;26.33;5.07;;;21.70;99.90;;;;;;5053611;28;20270;-71
2021/04/09 09:57:55;;;;;;;31.43;5.70;;;21.80;99.90;;;;;;5042518;28;20604;-70
2021/04/09 10:00:30;;;;;;;33.27;6.37;;;21.70;99.90;;;;;;5051999;28;20198;-70
2021/04/09 10:03:28;;;;;;;39.30;5.67;;;21.70;99.90;;;;;;5049935;28;20180;-70
2021/04/09 10:06:02;;;;;;;34.30;5.87;;;21.70;99.90;;;;;;5050467;28;20184;-71
2021/04/09 10:08:34;;;;;;;25.73;5.27;;;21.70;99.90;;;;;;5050392;28;20262;-70
2021/04/09 10:11:05;;;;;;;27.30;4.90;;;21.70;99.90;;;;;;5050020;28;20654;-71
2021/04/09 10:13:34;;;;;;;27.97;5.23;;;21.60;99.90;;;;;;5054085;28;20271;-70
2021/04/09 10:16:18;;;;;;;26.33;5.33;;;21.50;99.90;;;;;;5055192;28;20237;-70
2021/04/09 10:18:52;;;;;;;25.70;4.67;;;21.50;99.90;;;;;;5052421;28;20588;-70
2021/04/09 10:21:20;;;;;;;26.90;6.00;;;21.50;99.90;;;;;;5051802;28;20711;-70
2021/04/09 10:24:02;;;;;;;23.90;4.87;;;21.40;99.90;;;;;;5053026;28;20587;-70
2021/04/09 10:26:31;;;;;;;28.67;5.43;;;21.30;99.90;;;;;;5052541;28;20180;-71
2021/04/09 10:28:58;;;;;;;27.23;5.57;;;21.30;99.90;;;;;;5053021;28;20470;-70
2021/04/09 10:31:25;;;;;;;23.60;4.73;;;21.30;99.90;;;;;;5048884;28;20212;-71
2021/04/09 10:34:04;;;;;;;23.97;5.40;;;21.30;99.90;;;;;;5049146;28;20208;-71
2021/04/09 10:36:31;;;;;;;25.43;3.97;;;21.30;99.90;;;;;;5054889;28;20171;-72
2021/04/09 10:39:11;;;;;;;29.50;4.50;;;21.30;99.90;;;;;;5054887;28;20206;-71
2021/04/09 10:41:48;;;;;;;24.63;5.13;;;21.20;99.90;;;;;;5054736;28;20187;-71
2021/04/09 10:44:18;;;;;;;28.07;5.97;;;21.30;99.90;;;;;;5054800;28;20274;-71
2021/04/09 10:46:58;;;;;;;25.40;5.60;;;21.30;99.90;;;;;;5052593;28;20756;-71
2021/04/09 10:49:36;;;;;;;19.17;4.70;;;21.30;99.90;;;;;;5051712;28;20241;-70
2021/04/09 10:52:14;;;;;;;24.43;5.40;;;21.40;99.90;;;;;;5054303;28;20219;-70
2021/04/09 10:54:43;;;;;;;28.83;6.03;;;21.30;99.90;;;;;;5054229;28;20668;-71
2021/04/09 10:57:16;;;;;;;21.27;4.67;;;21.40;99.90;;;;;;5054389;28;20176;-70
2021/04/09 10:59:46;;;;;;;24.87;4.90;;;21.30;99.90;;;;;;5047165;28;20172;-71
2021/04/09 11:02:26;;;;;;;26.43;4.77;;;21.40;99.90;;;;;;5052184;28;20180;-70
2021/04/09 11:04:56;;;;;;;23.83;5.00;;;21.40;99.90;;;;;;5045034;28;20176;-70
2021/04/09 11:07:43;;;;;;;27.60;5.20;;;21.40;99.90;;;;;;5054288;28;20187;-71
2021/04/09 11:10:29;;;;;;;26.40;5.30;;;21.40;99.90;;;;;;5053849;28;20183;-71
2021/04/09 11:12:57;;;;;;;24.00;5.73;;;21.30;99.90;;;;;;5053990;28;20208;-71
2021/04/09 11:15:24;;;;;;;24.03;5.37;;;21.30;99.90;;;;;;5053594;28;20172;-71
2021/04/09 11:17:56;;;;;;;29.23;4.93;;;21.30;99.90;;;;;;5052799;28;20194;-70
2021/04/09 11:20:26;;;;;;;23.63;4.37;;;21.30;99.90;;;;;;5053318;28;20195;-71
2021/04/09 11:23:06;;;;;;;25.70;4.17;;;21.20;99.90;;;;;;5053271;28;20313;-71
2021/04/09 11:25:42;;;;;;;31.70;5.13;;;21.30;99.90;;;;;;5047293;28;20184;-71
2021/04/09 11:28:30;;;;;;;24.90;5.07;;;21.30;99.90;;;;;;5048680;28;20258;-71
2021/04/09 11:31:03;;;;;;;23.90;5.63;;;21.40;99.90;;;;;;5045305;28;20299;-71
2021/04/09 11:33:42;;;;;;;30.30;5.13;;;21.40;99.90;;;;;;5053625;28;20537;-71
2021/04/09 11:36:23;;;;;;;30.27;5.37;;;21.40;99.90;;;;;;5052395;28;20181;-71
2021/04/09 11:39:04;;;;;;;21.77;4.33;;;21.40;99.90;;;;;;5052469;28;20677;-71
2021/04/09 11:41:35;;;;;;;30.97;5.20;;;21.40;99.90;;;;;;5041205;28;20643;-71
2021/04/09 11:44:28;;;;;;;26.83;4.87;;;21.40;99.90;;;;;;5053637;28;20188;-71
2021/04/09 11:47:25;;;;;;;24.20;5.00;;;21.40;99.90;;;;;;5053347;28;20565;-72
2021/04/09 11:50:14;;;;;;;27.03;4.97;;;21.40;99.90;;;;;;5052708;28;20215;-71
2021/04/09 11:52:54;;;;;;;28.70;5.73;;;21.40;99.90;;;;;;5053853;28;20211;-72
2021/04/09 11:55:25;;;;;;;20.50;4.20;;;21.40;99.90;;;;;;5052154;28;20244;-71
2021/04/09 11:57:53;;;;;;;17.23;4.40;;;21.30;99.90;;;;;;5038753;28;20187;-71
2021/04/09 12:00:30;;;;;;;25.77;4.57;;;21.30;99.90;;;;;;5037804;28;20724;-71
2021/04/09 12:03:03;;;;;;;21.27;4.20;;;21.30;99.90;;;;;;5047871;28;20187;-70
2021/04/09 12:05:35;;;;;;;21.73;5.13;;;21.20;99.90;;;;;;5049484;28;20284;-71
2021/04/09 12:08:04;;;;;;;28.03;5.30;;;21.20;99.90;;;;;;5039805;28;20541;-71
2021/04/09 12:10:35;;;;;;;21.97;4.93;;;21.30;99.90;;;;;;5052604;28;20203;-71
2021/04/09 12:13:03;;;;;;;23.53;5.33;;;21.30;99.90;;;;;;5040792;28;20273;-71
2021/04/09 12:15:31;;;;;;;26.97;4.67;;;21.30;99.90;;;;;;5051579;28;20249;-70
2021/04/09 12:17:58;;;;;;;27.37;4.63;;;21.30;99.90;;;;;;5050395;28;20187;-71
2021/04/09 12:20:27;;;;;;;26.60;5.13;;;21.20;99.90;;;;;;5053008;28;20660;-70
2021/04/09 12:22:56;;;;;;;30.57;5.60;;;21.20;99.90;;;;;;5048991;28;20187;-71
2021/04/09 12:25:24;;;;;;;34.50;5.40;;;21.20;99.90;;;;;;5046693;28;20194;-71
2021/04/09 12:27:52;;;;;;;30.07;6.00;;;21.20;99.90;;;;;;5052242;28;20183;-70
2021/04/09 12:30:19;;;;;;;21.87;4.60;;;21.20;99.90;;;;;;5052629;28;20207;-70
2021/04/09 12:32:47;;;;;;;28.63;5.53;;;21.20;99.90;;;;;;5047973;28;20217;-71
2021/04/09 12:35:14;;;;;;;25.77;5.73;;;21.20;99.90;;;;;;5047193;28;20176;-70
2021/04/09 12:37:42;;;;;;;29.27;5.30;;;21.10;99.90;;;;;;5052929;28;20195;-70
2021/04/09 12:40:10;;;;;;;26.90;4.83;;;21.10;99.90;;;;;;5042177;28;20214;-70
2021/04/09 12:42:37;;;;;;;28.00;4.60;;;21.10;99.90;;;;;;5052542;28;20300;-71
2021/04/09 12:45:05;;;;;;;23.07;3.93;;;21.20;99.90;;;;;;5052503;28;20274;-70
2021/04/09 12:47:33;;;;;;;22.50;4.77;;;21.10;99.90;;;;;;5051656;28;20278;-70
2021/04/09 12:50:00;;;;;;;20.97;4.17;;;21.20;99.90;;;;;;5052670;28;20183;-70
2021/04/09 12:52:27;;;;;;;23.70;4.47;;;21.20;99.90;;;;;;5052454;28;20297;-70
2021/04/09 12:54:55;;;;;;;25.03;4.47;;;21.10;99.90;;;;;;5052181;28;20218;-71
2021/04/09 12:57:22;;;;;;;32.27;4.47;;;21.10;99.90;;;;;;5052113;28;20195;-71
2021/04/09 12:59:50;;;;;;;18.37;3.80;;;21.00;99.90;;;;;;5041770;28;20199;-71
2021/04/09 13:02:17;;;;;;;21.87;3.73;;;21.00;99.90;;;;;;5046062;28;20210;-70